Time;durP1;ratioP1;P1;durP2;ratioP2;P2;SDS_P1;SDS_P2;PMS_P1;PMS_P2;Temp;Humidity;BMP_temperature;BMP_pressure;BME280_temperature;BME280_humidity;BME280_pressure;Samples;Min_cycle;Max_cycle;Signal;HPM_P1;HPM_P2
2022/03/31 00:00:15;;;;;;;5.83;5.20;;;;;;;4.88;56.41;100062.47;4968156;28;20245;-61
2022/03/31 00:02:41;;;;;;;7.20;4.70;;;;;;;5.00;58.19;100060.00;4968027;28;20300;-59
2022/03/31 00:05:08;;;;;;;5.87;5.33;;;;;;;4.96;56.95;100063.44;4973011;28;20241;-59
2022/03/31 00:07:35;;;;;;;6.43;4.57;;;;;;;4.82;57.40;100065.88;4976468;28;20230;-60
2022/03/31 00:10:03;;;;;;;7.37;4.77;;;;;;;5.20;56.33;100068.91;4975856;28;20374;-59
2022/03/31 00:12:29;;;;;;;6.90;5.33;;;;;;;5.21;55.59;100065.44;4973099;28;20951;-60
2022/03/31 00:14:55;;;;;;;6.10;5.27;;;;;;;4.70;55.95;100070.94;4967442;28;20241;-59
2022/03/31 00:17:22;;;;;;;6.60;4.93;;;;;;;4.79;57.23;100066.72;4966105;28;20233;-59
2022/03/31 00:19:48;;;;;;;5.07;4.67;;;;;;;4.82;58.25;100062.41;4964338;28;20285;-60
2022/03/31 00:22:14;;;;;;;9.83;5.47;;;;;;;5.29;57.57;100069.84;4967726;28;20285;-59
2022/03/31 00:24:41;;;;;;;12.30;5.50;;;;;;;5.10;56.50;100063.59;4965101;28;20706;-60
2022/03/31 00:27:08;;;;;;;5.63;4.93;;;;;;;5.06;56.13;100067.88;4966756;28;20242;-59
2022/03/31 00:29:35;;;;;;;7.20;5.07;;;;;;;4.58;56.73;100069.06;4965453;28;20269;-59
2022/03/31 00:32:01;;;;;;;5.53;4.77;;;;;;;4.94;57.84;100066.00;4967131;28;20242;-59
2022/03/31 00:34:28;;;;;;;4.87;4.27;;;;;;;4.37;57.75;100074.00;4966508;28;20237;-60
2022/03/31 00:36:55;;;;;;;8.07;5.47;;;;;;;4.36;57.49;100074.84;4966868;28;20242;-60
2022/03/31 00:39:32;;;;;;;9.67;5.00;;;;;;;4.26;57.55;100072.13;4966560;28;20270;-60
2022/03/31 00:41:59;;;;;;;6.67;5.20;;;;;;;4.04;57.51;100076.13;4959835;28;20226;-60
2022/03/31 00:44:27;;;;;;;6.93;4.87;;;;;;;4.20;57.35;100077.22;4966812;28;20254;-60
2022/03/31 00:46:54;;;;;;;6.60;4.43;;;;;;;4.58;58.18;100070.78;4966425;28;20713;-59
2022/03/31 00:49:22;;;;;;;5.43;4.93;;;;;;;4.52;56.39;100071.56;4965982;28;20297;-59
2022/03/31 00:51:50;;;;;;;5.47;4.30;;;;;;;4.66;57.62;100071.75;4966720;28;20767;-59
2022/03/31 00:54:17;;;;;;;5.57;5.10;;;;;;;4.40;56.37;100068.84;4965952;28;20905;-60
2022/03/31 00:56:44;;;;;;;4.90;4.50;;;;;;;4.51;56.14;100062.91;4958592;28;20250;-59
2022/03/31 00:59:12;;;;;;;6.87;4.60;;;;;;;4.05;56.56;100061.44;4962524;28;20298;-59
2022/03/31 01:01:40;;;;;;;6.83;4.67;;;;;;;4.10;56.51;100067.53;4965481;28;20312;-59
2022/03/31 01:04:07;;;;;;;4.33;3.83;;;;;;;4.39;56.32;100062.78;4966228;28;20725;-60
2022/03/31 01:06:34;;;;;;;5.70;4.70;;;;;;;4.50;56.87;100068.09;4965602;28;20297;-60
2022/03/31 01:09:00;;;;;;;6.97;4.20;;;;;;;4.15;55.32;100062.44;4965667;28;20323;-59
2022/03/31 01:11:27;;;;;;;5.57;4.70;;;;;;;4.34;55.81;100064.41;4965937;28;20313;-60
2022/03/31 01:13:53;;;;;;;8.63;5.17;;;;;;;4.76;56.02;100061.47;4964749;28;20911;-60
2022/03/31 01:16:20;;;;;;;5.97;4.73;;;;;;;4.40;56.30;100058.44;4963600;28;20238;-61
2022/03/31 01:18:47;;;;;;;5.10;4.60;;;;;;;3.92;55.32;100059.50;4965425;28;20396;-60
2022/03/31 01:21:14;;;;;;;5.33;4.13;;;;;;;4.45;56.23;100064.56;4966128;28;20795;-60
2022/03/31 01:23:42;;;;;;;4.87;4.37;;;;;;;3.89;55.76;100064.63;4965830;28;20794;-60
2022/03/31 01:26:09;;;;;;;6.17;4.67;;;;;;;3.65;57.23;100063.44;4965338;28;20921;-60
2022/03/31 01:28:38;;;;;;;5.93;4.93;;;;;;;3.74;58.36;100063.56;4965705;28;20712;-60
2022/03/31 01:31:04;;;;;;;7.37;5.00;;;;;;;4.03;56.60;100063.97;4965890;28;20303;-60
2022/03/31 01:33:31;;;;;;;6.30;5.37;;;;;;;4.09;58.08;100068.41;4964959;28;20329;-60
2022/03/31 01:35:58;;;;;;;5.93;4.90;;;;;;;4.40;57.05;100067.09;4964971;28;20233;-61
2022/03/31 01:38:25;;;;;;;7.50;4.80;;;;;;;3.97;56.21;100063.91;4965833;28;20267;-59
2022/03/31 01:40:53;;;;;;;10.30;5.50;;;;;;;4.15;54.39;100070.22;4965592;28;20945;-60
2022/03/31 01:43:20;;;;;;;6.93;4.43;;;;;;;4.22;57.41;100070.31;4965367;28;20261;-59
2022/03/31 01:45:48;;;;;;;7.17;4.67;;;;;;;3.88;55.73;100071.56;4964953;28;20323;-59
2022/03/31 01:48:15;;;;;;;3.97;3.63;;;;;;;3.92;55.40;100075.94;4965742;28;20261;-59
2022/03/31 01:50:41;;;;;;;6.63;3.97;;;;;;;4.10;58.04;100070.13;4963358;28;20322;-58
2022/03/31 01:53:08;;;;;;;6.27;4.67;;;;;;;4.18;56.55;100071.16;4965288;28;20653;-58
2022/03/31 01:55:34;;;;;;;6.33;5.60;;;;;;;3.89;54.77;100072.44;4964990;28;20581;-59
2022/03/31 01:58:02;;;;;;;6.03;4.40;;;;;;;4.05;56.97;100071.81;4965444;28;20252;-60
2022/03/31 02:00:29;;;;;;;8.40;4.57;;;;;;;3.56;57.80;100060.66;4965091;28;20774;-59
2022/03/31 02:02:55;;;;;;;5.10;4.53;;;;;;;3.62;57.24;100070.28;4965375;28;20237;-59
2022/03/31 02:05:22;;;;;;;7.50;4.50;;;;;;;3.78;56.25;100073.13;4962749;28;20285;-59
2022/03/31 02:07:48;;;;;;;5.87;4.60;;;;;;;3.54;56.78;100068.41;4963327;28;20280;-59
2022/03/31 02:10:15;;;;;;;5.00;3.83;;;;;;;3.86;57.31;100064.59;4965166;28;20241;-58
2022/03/31 02:12:42;;;;;;;7.40;4.03;;;;;;;3.58;56.69;100067.63;4965220;28;20328;-59
2022/03/31 02:15:11;;;;;;;5.50;4.67;;;;;;;3.56;57.80;100063.25;4964777;28;20233;-59
2022/03/31 02:17:37;;;;;;;5.30;4.27;;;;;;;3.91;57.63;100068.13;4964216;28;20320;-59
2022/03/31 02:20:04;;;;;;;5.40;3.97;;;;;;;3.52;56.32;100069.25;4964847;28;20759;-59
2022/03/31 02:22:31;;;;;;;5.13;4.03;;;;;;;3.93;56.04;100071.63;4965018;28;20235;-59
2022/03/31 02:24:57;;;;;;;4.90;3.87;;;;;;;3.71;56.35;100066.09;4964917;28;20238;-58
2022/03/31 02:27:24;;;;;;;3.90;3.60;;;;;;;3.42;57.47;100072.53;4968148;28;20237;-60
2022/03/31 02:29:50;;;;;;;8.67;4.30;;;;;;;3.39;57.53;100072.47;4969328;28;20741;-58
2022/03/31 02:32:18;;;;;;;6.67;4.63;;;;;;;3.26;57.71;100072.25;4968836;28;20237;-58
2022/03/31 02:34:44;;;;;;;5.03;4.40;;;;;;;2.80;57.83;100078.31;4969119;28;20234;-59
2022/03/31 02:37:11;;;;;;;6.80;4.60;;;;;;;3.36;59.50;100083.69;4968879;28;20237;-59
2022/03/31 02:39:37;;;;;;;6.70;3.97;;;;;;;3.71;57.47;100073.88;4968944;28;20755;-58
2022/03/31 02:42:04;;;;;;;6.20;4.30;;;;;;;3.27;56.80;100079.22;4966249;28;20234;-59
2022/03/31 02:44:30;;;;;;;5.90;4.20;;;;;;;2.94;58.63;100063.88;4968408;28;20309;-59
2022/03/31 02:46:57;;;;;;;6.03;3.97;;;;;;;3.25;57.28;100080.88;4968195;28;20295;-59
2022/03/31 02:49:24;;;;;;;6.73;4.03;;;;;;;3.27;58.15;100078.34;4968378;28;20366;-59
2022/03/31 02:51:51;;;;;;;4.90;3.70;;;;;;;3.56;57.56;100068.47;4968506;28;20249;-61
2022/03/31 02:57:01;;;;;;;5.50;3.63;;;;;;;3.27;57.44;100084.41;4965889;28;20233;-60
2022/03/31 02:59:30;;;;;;;7.67;3.97;;;;;;;3.31;55.10;100075.81;4968061;28;20297;-58
2022/03/31 03:01:57;;;;;;;5.47;3.90;;;;;;;3.42;55.97;100070.81;4964283;28;20242;-58
2022/03/31 03:04:25;;;;;;;4.63;4.20;;;;;;;3.31;56.42;100070.63;4968117;28;20316;-59
2022/03/31 03:06:51;;;;;;;5.87;3.73;;;;;;;3.65;58.17;100076.41;4968054;28;20237;-60
2022/03/31 03:09:18;;;;;;;6.97;4.57;;;;;;;3.02;55.97;100071.81;4968816;28;20265;-58
2022/03/31 03:11:44;;;;;;;8.80;3.63;;;;;;;3.48;56.31;100062.28;4969025;28;20302;-58
2022/03/31 03:14:13;;;;;;;4.77;3.87;;;;;;;3.51;56.89;100064.88;4966501;28;20238;-58
2022/03/31 03:16:40;;;;;;;6.70;4.03;;;;;;;3.00;56.73;100065.75;4967603;28;20265;-58
2022/03/31 03:19:07;;;;;;;9.23;5.00;;;;;;;3.26;56.16;100069.66;4968097;28;20818;-58
2022/03/31 03:21:35;;;;;;;4.80;4.00;;;;;;;3.13;56.15;100070.31;4968082;28;20404;-58
2022/03/31 03:24:02;;;;;;;4.33;3.90;;;;;;;3.20;54.73;100071.31;4968184;28;20798;-58
2022/03/31 03:26:29;;;;;;;4.80;3.60;;;;;;;3.36;56.58;100070.69;4967562;28;20237;-58
2022/03/31 03:28:56;;;;;;;5.07;4.23;;;;;;;3.54;56.93;100067.53;4966034;28;20402;-59
2022/03/31 03:31:22;;;;;;;5.83;4.23;;;;;;;2.98;54.98;100063.09;4967472;28;20956;-60
2022/03/31 03:33:48;;;;;;;6.70;4.50;;;;;;;3.01;57.04;100063.16;4968026;28;20237;-59
2022/03/31 03:36:17;;;;;;;5.80;4.07;;;;;;;2.97;55.57;100065.69;4967351;28;20292;-60
2022/03/31 03:38:45;;;;;;;4.27;3.40;;;;;;;2.80;55.95;100052.38;4968807;28;20352;-58
2022/03/31 03:41:12;;;;;;;7.03;4.00;;;;;;;2.54;57.71;100065.72;4967182;28;20292;-59
2022/03/31 03:43:39;;;;;;;5.80;4.13;;;;;;;2.60;56.13;100063.25;4967450;28;20237;-58
2022/03/31 03:46:06;;;;;;;8.23;4.30;;;;;;;2.96;57.34;100061.34;4965813;28;20233;-58
2022/03/31 03:48:32;;;;;;;4.43;3.43;;;;;;;2.79;56.47;100059.28;4965826;28;20616;-58
2022/03/31 03:50:59;;;;;;;5.43;3.87;;;;;;;2.59;57.64;100058.03;4968069;28;20226;-60
2022/03/31 03:53:25;;;;;;;5.67;3.83;;;;;;;2.46;55.90;100054.31;4967722;28;20261;-60
2022/03/31 03:55:53;;;;;;;4.53;3.50;;;;;;;2.62;56.59;100050.31;4962538;28;20244;-59
2022/03/31 03:58:20;;;;;;;5.33;3.43;;;;;;;2.68;56.75;100055.63;4966998;28;20668;-61
2022/03/31 04:00:46;;;;;;;5.53;4.23;;;;;;;2.68;56.75;100052.16;4967726;28;20291;-60
2022/03/31 04:03:13;;;;;;;5.20;3.20;;;;;;;2.93;55.98;100050.91;4965579;28;20343;-59
2022/03/31 04:05:39;;;;;;;6.60;3.97;;;;;;;2.81;54.82;100046.38;4966425;28;20237;-59
2022/03/31 04:08:06;;;;;;;8.27;3.30;;;;;;;3.24;56.54;100052.34;4966119;28;20439;-59
2022/03/31 04:10:33;;;;;;;7.03;4.13;;;;;;;2.89;54.99;100046.53;4966547;28;20287;-59
2022/03/31 04:13:02;;;;;;;4.60;3.90;;;;;;;2.75;55.83;100036.75;4967072;28;20736;-58
2022/03/31 04:15:28;;;;;;;6.30;3.50;;;;;;;2.60;56.42;100039.06;4966680;28;20268;-59
2022/03/31 04:17:55;;;;;;;4.87;3.53;;;;;;;2.13;57.56;100049.28;4966882;28;20253;-58
2022/03/31 04:20:21;;;;;;;8.17;3.77;;;;;;;2.59;56.88;100050.25;4964315;28;20269;-58
2022/03/31 04:22:48;;;;;;;3.53;3.23;;;;;;;2.38;56.95;100051.53;4965998;28;20692;-57
2022/03/31 04:25:14;;;;;;;4.60;3.40;;;;;;;2.67;56.86;100035.75;4967275;28;20684;-59
2022/03/31 04:27:40;;;;;;;6.53;4.07;;;;;;;2.77;56.63;100050.63;4966889;28;20245;-61
2022/03/31 04:30:11;;;;;;;6.17;3.60;;;;;;;2.65;55.41;100050.38;4966766;28;20244;-58
2022/03/31 04:32:38;;;;;;;3.90;2.87;;;;;;;2.30;56.24;100047.06;4966325;28;20264;-58
2022/03/31 04:35:05;;;;;;;4.00;3.27;;;;;;;2.75;56.74;100047.13;4964116;28;20775;-58
2022/03/31 04:37:34;;;;;;;3.73;3.13;;;;;;;2.85;56.81;100054.22;4965795;28;20232;-60
2022/03/31 04:40:02;;;;;;;3.93;3.37;;;;;;;2.76;55.73;100041.09;4966724;28;20699;-58
2022/03/31 04:42:28;;;;;;;5.80;3.07;;;;;;;3.13;54.69;100053.88;4966094;28;20261;-58
2022/03/31 04:44:55;;;;;;;6.20;3.13;;;;;;;2.62;55.20;100065.84;4966681;28;20562;-58
2022/03/31 04:47:23;;;;;;;9.53;3.03;;;;;;;2.34;56.37;100052.34;4965417;28;20324;-59
2022/03/31 04:49:50;;;;;;;7.00;3.57;;;;;;;2.45;56.32;100059.47;4966789;28;20237;-58
2022/03/31 04:52:16;;;;;;;4.03;2.60;;;;;;;2.48;56.02;100056.94;4965364;28;20238;-58
2022/03/31 04:54:44;;;;;;;5.17;3.37;;;;;;;2.66;55.89;100061.59;4957585;28;20324;-60
2022/03/31 04:57:12;;;;;;;3.23;2.80;;;;;;;2.36;56.76;100068.78;4963224;28;20325;-59
2022/03/31 04:59:38;;;;;;;4.43;3.30;;;;;;;1.92;57.65;100065.22;4965597;28;20233;-59
2022/03/31 05:02:05;;;;;;;9.50;3.17;;;;;;;1.99;56.72;100068.81;4965643;28;20319;-59
2022/03/31 05:04:33;;;;;;;5.23;3.07;;;;;;;2.44;56.94;100065.50;4966339;28;20237;-61
2022/03/31 05:07:00;;;;;;;4.80;3.53;;;;;;;2.73;57.26;100053.97;4966534;28;20237;-59
2022/03/31 05:09:26;;;;;;;5.17;4.07;;;;;;;2.96;56.71;100064.81;4964834;28;20241;-60
2022/03/31 05:11:52;;;;;;;7.80;2.63;;;;;;;2.60;54.94;100063.25;4965925;28;20242;-59
2022/03/31 05:14:19;;;;;;;4.80;2.90;;;;;;;2.35;55.18;100072.25;4965607;28;20241;-59
2022/03/31 05:16:45;;;;;;;4.50;3.70;;;;;;;2.65;56.20;100072.81;4965992;28;20292;-60
2022/03/31 05:19:12;;;;;;;4.00;2.80;;;;;;;2.41;57.72;100074.06;4965943;28;20288;-59
2022/03/31 05:21:39;;;;;;;4.83;3.37;;;;;;;2.56;56.49;100068.31;4966173;28;20246;-59
2022/03/31 05:24:07;;;;;;;11.63;2.80;;;;;;;2.37;56.99;100070.53;4965414;28;20238;-59
2022/03/31 05:26:33;;;;;;;5.27;4.57;;;;;;;1.79;56.98;100082.19;4963735;28;20859;-60
2022/03/31 05:29:00;;;;;;;6.03;3.07;;;;;;;2.17;57.41;100078.72;4965148;28;20237;-57
2022/03/31 05:31:27;;;;;;;3.00;2.70;;;;;;;2.11;56.25;100079.47;4965365;28;20313;-59
2022/03/31 05:33:53;;;;;;;9.33;2.67;;;;;;;2.28;57.60;100087.59;4965050;28;20329;-58
2022/03/31 05:36:19;;;;;;;4.20;3.13;;;;;;;2.06;57.02;100078.47;4965142;28;20268;-59
2022/03/31 05:38:47;;;;;;;7.80;3.57;;;;;;;2.14;56.81;100077.81;4967194;28;20245;-62
2022/03/31 05:41:14;;;;;;;4.43;2.53;;;;;;;2.04;56.75;100075.00;4957578;28;20657;-58
2022/03/31 05:43:43;;;;;;;8.67;3.30;;;;;;;1.92;56.56;100076.44;4965033;28;20268;-57
2022/03/31 05:46:09;;;;;;;5.10;3.73;;;;;;;1.63;57.84;100074.88;4965198;28;20250;-58
2022/03/31 05:48:36;;;;;;;7.40;3.30;;;;;;;2.10;58.42;100075.97;4965819;28;20244;-59
2022/03/31 05:51:03;;;;;;;4.47;2.93;;;;;;;1.70;58.34;100081.97;4965234;28;20605;-59
2022/03/31 05:53:29;;;;;;;4.13;2.50;;;;;;;2.06;58.86;100068.13;4964493;28;20230;-59
2022/03/31 05:55:57;;;;;;;4.73;3.53;;;;;;;1.74;58.12;100076.00;4957169;28;20237;-60
2022/03/31 05:58:23;;;;;;;8.03;2.90;;;;;;;2.08;59.27;100080.25;4962137;28;20246;-58
2022/03/31 06:00:52;;;;;;;4.80;3.37;;;;;;;2.15;58.26;100076.09;4964434;28;20237;-59
2022/03/31 06:03:21;;;;;;;5.47;3.30;;;;;;;2.48;56.98;100081.13;4965860;28;20328;-60
2022/03/31 06:05:47;;;;;;;11.07;3.13;;;;;;;2.35;55.62;100092.97;4965578;28;20249;-60
2022/03/31 06:08:13;;;;;;;3.93;3.13;;;;;;;2.25;56.54;100096.19;4965644;28;20245;-60
2022/03/31 06:10:40;;;;;;;3.83;2.93;;;;;;;2.25;56.09;100091.00;4965205;28;20315;-59
2022/03/31 06:13:07;;;;;;;6.00;3.83;;;;;;;2.48;56.63;100090.63;4966156;28;20662;-58
2022/03/31 06:15:34;;;;;;;4.67;3.87;;;;;;;2.26;57.17;100102.22;4964448;28;20312;-59
2022/03/31 06:18:01;;;;;;;5.13;3.73;;;;;;;2.28;58.16;100085.91;4966644;28;20245;-58
2022/03/31 06:20:27;;;;;;;5.00;3.90;;;;;;;2.58;55.43;100089.97;4966191;28;20716;-61
2022/03/31 06:22:54;;;;;;;4.80;2.80;;;;;;;2.27;57.04;100094.47;4966149;28;20293;-60
2022/03/31 06:25:21;;;;;;;4.67;3.10;;;;;;;2.10;57.83;100093.22;4965012;28;20617;-59
2022/03/31 06:27:47;;;;;;;4.57;3.37;;;;;;;1.98;58.84;100088.66;4965821;28;20261;-58
2022/03/31 06:30:16;;;;;;;8.93;4.07;;;;;;;2.28;59.00;100085.91;4963760;28;20447;-58
2022/03/31 06:32:43;;;;;;;3.67;3.03;;;;;;;2.32;56.36;100092.88;4961079;28;20265;-59
2022/03/31 06:35:13;;;;;;;4.63;2.83;;;;;;;2.03;56.18;100099.09;4963345;28;20256;-60
2022/03/31 06:37:40;;;;;;;4.80;3.40;;;;;;;1.91;57.19;100095.41;4965671;28;20254;-59
2022/03/31 06:40:07;;;;;;;4.23;3.00;;;;;;;2.25;56.97;100091.00;4964204;28;20229;-59
2022/03/31 06:42:33;;;;;;;4.00;3.17;;;;;;;2.13;58.74;100093.31;4964723;28;20304;-58
2022/03/31 06:45:00;;;;;;;6.37;4.30;;;;;;;2.33;56.54;100088.56;4964145;28;20296;-59
2022/03/31 06:47:28;;;;;;;6.40;3.60;;;;;;;1.92;56.97;100088.50;4962974;28;20261;-58
2022/03/31 06:49:54;;;;;;;3.23;2.93;;;;;;;2.04;58.06;100098.28;4963551;28;20241;-58
2022/03/31 06:52:21;;;;;;;8.97;2.90;;;;;;;2.06;58.17;100104.38;4963535;28;20689;-59
2022/03/31 06:54:47;;;;;;;5.30;3.27;;;;;;;2.28;56.31;100103.13;4964418;28;20242;-60
2022/03/31 06:57:13;;;;;;;6.10;3.80;;;;;;;2.41;56.63;100112.06;4965310;28;20269;-58
2022/03/31 06:59:40;;;;;;;4.93;3.73;;;;;;;2.13;55.70;100101.06;4963556;28;20669;-60
2022/03/31 07:02:07;;;;;;;4.33;3.43;;;;;;;1.94;57.73;100106.69;4961889;28;20331;-63
2022/03/31 07:04:34;;;;;;;16.37;4.20;;;;;;;2.00;57.41;100099.94;4962083;28;20313;-64
2022/03/31 07:07:01;;;;;;;5.37;3.10;;;;;;;2.15;57.01;100100.28;4964361;28;20225;-65
2022/03/31 07:09:28;;;;;;;5.57;3.63;;;;;;;2.07;57.70;100101.81;4956647;28;20742;-64
2022/03/31 07:11:55;;;;;;;4.83;3.93;;;;;;;2.04;57.28;100100.88;4963404;28;20230;-63
2022/03/31 07:14:21;;;;;;;4.07;3.60;;;;;;;2.67;55.77;100097.03;4965943;28;20261;-64
2022/03/31 07:16:47;;;;;;;8.07;3.57;;;;;;;2.96;55.45;100098.50;4963616;28;20288;-64
2022/03/31 07:19:14;;;;;;;3.63;3.13;;;;;;;2.93;56.12;100105.34;4964790;28;20480;-63
2022/03/31 07:21:42;;;;;;;5.57;4.07;;;;;;;2.57;55.67;100108.97;4966539;28;20746;-66
2022/03/31 07:24:08;;;;;;;8.90;3.70;;;;;;;2.70;55.90;100103.16;4966665;28;20312;-64
2022/03/31 07:26:34;;;;;;;6.93;3.30;;;;;;;2.75;54.92;100098.09;4962303;28;20316;-65
2022/03/31 07:29:01;;;;;;;3.57;3.27;;;;;;;3.29;54.30;100087.00;4965453;28;20242;-64
2022/03/31 07:31:28;;;;;;;4.83;4.10;;;;;;;3.07;53.68;100084.03;4965178;28;20322;-66
2022/03/31 07:33:55;;;;;;;4.63;3.50;;;;;;;3.02;54.78;100082.19;4964897;28;20692;-63
2022/03/31 07:36:21;;;;;;;5.30;3.73;;;;;;;3.09;54.63;100077.16;4965153;28;20253;-64
2022/03/31 07:38:49;;;;;;;4.13;3.83;;;;;;;3.12;53.18;100078.91;4964564;28;20537;-65
2022/03/31 07:41:16;;;;;;;7.30;3.33;;;;;;;3.39;52.94;100082.88;4966881;28;20265;-63
2022/03/31 07:43:43;;;;;;;3.40;3.10;;;;;;;3.51;53.65;100072.69;4963345;28;20701;-65
2022/03/31 07:46:09;;;;;;;4.90;3.80;;;;;;;3.55;53.77;100071.91;4959497;28;20269;-64
2022/03/31 07:48:35;;;;;;;4.30;3.40;;;;;;;3.56;52.87;100076.25;4964991;28;20254;-64
2022/03/31 07:51:03;;;;;;;4.13;3.20;;;;;;;3.73;53.00;100079.97;4965075;28;20233;-63
2022/03/31 07:53:32;;;;;;;5.10;3.83;;;;;;;3.65;52.94;100075.50;4963714;28;20333;-63
2022/03/31 07:56:00;;;;;;;13.60;3.73;;;;;;;3.93;52.60;100082.00;4962380;28;20276;-64
2022/03/31 07:58:27;;;;;;;3.80;3.43;;;;;;;4.07;51.86;100077.88;4966680;28;20242;-62
2022/03/31 08:00:54;;;;;;;4.17;3.30;;;;;;;4.06;51.66;100081.34;4967753;28;20315;-63
2022/03/31 08:03:22;;;;;;;5.27;4.20;;;;;;;3.77;51.58;100084.38;4967511;28;20233;-63
2022/03/31 08:05:49;;;;;;;5.47;4.00;;;;;;;3.91;51.94;100083.72;4966173;28;20591;-64
2022/03/31 08:08:16;;;;;;;4.63;4.10;;;;;;;3.91;52.04;100068.13;4968111;28;20661;-62
2022/03/31 08:10:42;;;;;;;5.90;4.20;;;;;;;3.80;51.73;100073.16;4964894;28;20696;-63
2022/03/31 08:13:10;;;;;;;4.30;3.40;;;;;;;3.88;51.29;100078.47;4966554;28;20289;-62
2022/03/31 08:15:37;;;;;;;5.13;3.53;;;;;;;3.72;51.75;100080.84;4965598;28;20235;-62
2022/03/31 08:18:05;;;;;;;4.20;3.80;;;;;;;3.83;51.97;100076.69;4965901;28;20623;-63
2022/03/31 08:20:32;;;;;;;4.93;3.63;;;;;;;3.78;50.73;100075.72;4964407;28;20245;-63
2022/03/31 08:22:58;;;;;;;7.30;3.73;;;;;;;4.10;50.98;100077.94;4965592;28;20253;-59
2022/03/31 08:25:25;;;;;;;4.97;4.10;;;;;;;4.20;52.02;100077.22;4961452;28;20233;-56
2022/03/31 08:27:51;;;;;;;4.70;4.17;;;;;;;4.27;50.63;100072.97;4962220;28;20318;-57
2022/03/31 08:30:21;;;;;;;4.40;3.37;;;;;;;4.54;50.37;100081.16;4964350;28;20246;-57
2022/03/31 08:32:48;;;;;;;5.43;3.73;;;;;;;4.62;49.56;100081.25;4962396;28;20264;-60
2022/03/31 08:35:16;;;;;;;3.90;3.23;;;;;;;4.73;50.75;100081.38;4968443;28;20242;-66
2022/03/31 08:37:42;;;;;;;4.50;3.73;;;;;;;4.95;48.78;100066.88;4955515;28;21023;-63
2022/03/31 08:40:12;;;;;;;4.70;3.60;;;;;;;4.95;48.41;100069.47;4965089;28;20263;-59
2022/03/31 08:42:39;;;;;;;6.00;4.30;;;;;;;5.00;47.97;100057.41;4954189;28;20238;-59
2022/03/31 08:45:06;;;;;;;4.40;4.00;;;;;;;4.83;49.20;100074.56;4965655;28;20281;-62
2022/03/31 08:47:35;;;;;;;5.23;4.03;;;;;;;4.94;48.58;100068.59;4969877;28;20281;-61
2022/03/31 08:50:01;;;;;;;9.20;4.23;;;;;;;4.76;49.18;100064.06;4967039;28;20235;-62
2022/03/31 08:52:27;;;;;;;4.43;3.77;;;;;;;5.01;48.77;100072.16;4967209;28;20239;-60
2022/03/31 08:54:54;;;;;;;4.37;3.97;;;;;;;5.14;48.79;100071.44;4965179;28;20230;-63
2022/03/31 08:57:21;;;;;;;4.27;3.80;;;;;;;5.21;48.08;100069.78;4968317;28;20328;-63
2022/03/31 08:59:47;;;;;;;4.38;3.85;;;;;;;5.28;48.72;100078.50;4965883;28;20523;-60
2022/03/31 09:02:23;;;;;;;4.60;4.17;;;;;;;5.33;47.98;100064.66;4964490;28;20222;-60
2022/03/31 09:05:01;;;;;;;6.07;4.37;;;;;;;5.50;46.77;100065.69;4962189;28;20233;-58
2022/03/31 09:07:27;;;;;;;5.27;4.03;;;;;;;5.21;46.87;100057.63;4956606;28;20300;-59
2022/03/31 09:09:54;;;;;;;5.97;3.87;;;;;;;5.40;47.65;100069.06;4965314;28;20258;-59
2022/03/31 09:12:22;;;;;;;6.70;4.37;;;;;;;5.65;47.98;100051.94;4964350;28;20269;-65
2022/03/31 09:14:49;;;;;;;8.97;4.70;;;;;;;5.77;46.81;100060.72;4956408;28;20230;-61
2022/03/31 09:17:16;;;;;;;4.13;3.73;;;;;;;5.80;46.91;100060.75;4965368;28;20238;-61
2022/03/31 09:19:45;;;;;;;6.10;4.03;;;;;;;6.14;46.73;100054.94;4962024;28;20235;-65
2022/03/31 09:22:13;;;;;;;5.77;3.80;;;;;;;6.17;45.71;100059.25;4961504;28;20250;-63
2022/03/31 09:24:39;;;;;;;8.60;4.73;;;;;;;6.21;46.54;100061.94;4959189;28;21059;-62
2022/03/31 09:27:06;;;;;;;4.13;3.73;;;;;;;6.28;45.02;100067.16;4965696;28;20233;-58
2022/03/31 09:29:34;;;;;;;6.17;4.07;;;;;;;6.45;44.43;100068.97;4963905;28;20262;-59
2022/03/31 09:32:07;;;;;;;5.07;4.00;;;;;;;6.60;45.33;100055.16;4965009;28;20838;-61
2022/03/31 09:34:39;;;;;;;5.97;3.90;;;;;;;6.66;45.41;100051.69;4963672;28;20230;-59
2022/03/31 09:37:06;;;;;;;5.73;3.80;;;;;;;6.36;45.76;100066.34;4964302;28;20242;-58
2022/03/31 09:39:33;;;;;;;8.33;4.17;;;;;;;6.50;45.23;100052.50;4965175;28;20736;-61
2022/03/31 09:42:00;;;;;;;8.00;4.27;;;;;;;6.22;45.40;100047.16;4964457;28;20238;-59
2022/03/31 09:44:26;;;;;;;6.40;4.13;;;;;;;6.56;45.56;100048.16;4960413;28;20926;-61
2022/03/31 09:46:53;;;;;;;6.97;4.20;;;;;;;6.41;45.42;100061.13;4963772;28;20743;-58
2022/03/31 09:49:22;;;;;;;5.80;4.53;;;;;;;6.64;44.84;100059.50;4965317;28;21057;-57
2022/03/31 09:51:49;;;;;;;5.10;4.53;;;;;;;6.78;45.08;100048.28;4962336;28;20231;-56
2022/03/31 09:54:17;;;;;;;8.00;4.33;;;;;;;6.80;45.15;100046.53;4954228;28;20254;-58
2022/03/31 09:56:45;;;;;;;5.83;5.23;;;;;;;6.79;44.72;100043.03;4963690;28;20349;-55
2022/03/31 09:59:13;;;;;;;6.97;4.40;;;;;;;6.89;44.90;100046.56;4956939;28;20266;-58
2022/03/31 10:01:40;;;;;;;4.97;4.13;;;;;;;6.92;44.97;100044.81;4961677;28;20234;-64
2022/03/31 10:04:07;;;;;;;10.23;4.50;;;;;;;7.08;44.45;100032.66;4965191;28;20226;-59
2022/03/31 10:06:34;;;;;;;5.23;4.73;;;;;;;6.89;44.72;100043.94;4964061;28;20883;-58
2022/03/31 10:09:01;;;;;;;5.43;4.20;;;;;;;6.99;44.98;100044.84;4964953;28;20657;-68
2022/03/31 10:11:28;;;;;;;8.03;4.90;;;;;;;6.85;45.50;100039.59;4963744;28;20720;-67
2022/03/31 10:14:08;;;;;;;4.97;4.37;;;;;;;6.64;45.44;100027.34;4964443;28;20234;-62
2022/03/31 10:16:39;;;;;;;9.90;4.55;;;;;;;6.70;44.96;100035.19;4957721;28;20869;-64
2022/03/31 10:19:06;;;;;;;9.20;4.17;;;;;;;6.86;45.10;100038.72;4961641;28;20253;-64
2022/03/31 10:21:33;;;;;;;4.70;4.30;;;;;;;6.92;44.55;100042.22;4959971;28;20904;-68
2022/03/31 10:26:44;;;;;;;7.00;4.10;;;;;;;7.06;44.43;100029.19;4965678;28;20269;-70
2022/03/31 10:29:13;;;;;;;7.20;5.10;;;;;;;7.26;44.08;100028.34;4958629;28;20401;-73
2022/03/31 10:31:42;;;;;;;10.63;4.83;;;;;;;7.25;44.82;100024.00;4965468;28;20249;-74
2022/03/31 10:34:09;;;;;;;7.17;4.97;;;;;;;7.28;44.10;100019.66;4965398;28;20238;-71
2022/03/31 10:36:39;;;;;;;6.90;4.93;;;;;;;7.33;44.47;100011.81;4964324;28;20313;-67
2022/03/31 10:39:07;;;;;;;4.50;4.10;;;;;;;7.23;44.03;100010.06;4964017;28;20254;-68
2022/03/31 10:41:36;;;;;;;5.90;4.40;;;;;;;7.23;43.45;100010.06;4967094;28;20239;-63
2022/03/31 10:44:04;;;;;;;10.40;5.07;;;;;;;7.35;44.33;100015.31;4965508;28;20227;-62
2022/03/31 10:46:32;;;;;;;8.07;5.47;;;;;;;7.16;43.87;100009.22;4966357;28;20806;-64
2022/03/31 10:48:59;;;;;;;6.27;4.20;;;;;;;7.42;44.18;100011.81;4964485;28;20882;-70
2022/03/31 10:51:32;;;;;;;5.10;4.00;;;;;;;7.40;43.75;100009.19;4967537;28;20230;-64
2022/03/31 10:53:59;;;;;;;9.60;4.70;;;;;;;7.56;44.00;100014.44;4976039;28;20308;-67
2022/03/31 10:56:28;;;;;;;8.07;5.53;;;;;;;7.77;43.81;100014.41;4974268;28;20231;-62
2022/03/31 10:58:55;;;;;;;5.80;4.70;;;;;;;7.52;43.62;100008.34;4967174;28;20624;-60
2022/03/31 11:01:23;;;;;;;6.47;4.80;;;;;;;7.69;44.08;100008.34;4966763;28;20266;-71
2022/03/31 11:03:51;;;;;;;4.50;3.90;;;;;;;7.92;43.73;100008.28;4969235;28;20246;-76
2022/03/31 11:06:18;;;;;;;10.10;4.70;;;;;;;8.11;42.67;100004.78;4963297;28;20239;-62
2022/03/31 11:08:46;;;;;;;9.33;5.20;;;;;;;8.13;42.15;100010.84;4969213;28;20247;-71
2022/03/31 11:11:20;;;;;;;5.90;4.53;;;;;;;8.02;42.33;99996.94;4974242;28;21483;-73
2022/03/31 11:13:47;;;;;;;6.57;4.90;;;;;;;7.74;42.82;100003.09;4968965;28;20234;-66
2022/03/31 11:16:15;;;;;;;6.00;4.30;;;;;;;7.70;43.59;100004.84;4962016;28;20230;-71
2022/03/31 11:18:42;;;;;;;5.83;4.83;;;;;;;7.85;43.12;99991.75;4968538;28;20243;-78
2022/03/31 11:21:10;;;;;;;5.30;4.60;;;;;;;8.09;41.68;99989.97;4965206;28;20245;-61
2022/03/31 11:23:45;;;;;;;7.93;4.97;;;;;;;7.96;42.40;99991.72;4967773;28;20248;-66
2022/03/31 11:26:12;;;;;;;6.03;4.77;;;;;;;7.75;41.99;99989.16;4966418;28;20254;-66
2022/03/31 11:28:38;;;;;;;6.37;4.87;;;;;;;7.95;42.53;99986.50;4967600;28;20258;-66
2022/03/31 11:31:12;;;;;;;6.47;5.33;;;;;;;7.84;42.46;99989.16;4965894;28;20693;-64
2022/03/31 11:33:39;;;;;;;5.57;4.00;;;;;;;8.06;42.05;99996.06;4968256;28;20693;-71
2022/03/31 11:36:06;;;;;;;5.27;4.10;;;;;;;8.26;42.40;99977.69;4967861;28;20322;-73
2022/03/31 11:38:34;;;;;;;7.27;4.20;;;;;;;8.18;42.46;99971.63;4968298;28;20238;-68